Time;durP1;ratioP1;P1;durP2;ratioP2;P2;SDS_P1;SDS_P2;PMS_P1;PMS_P2;Temp;Humidity;BMP_temperature;BMP_pressure;BME280_temperature;BME280_humidity;BME280_pressure;Samples;Min_cycle;Max_cycle;Signal;HPM_P1;HPM_P2
2023/04/03 00:02:04;;;;;;;;;;;4.30;99.90;;;;;;7331821;19;110713;-69
2023/04/03 00:04:31;;;;;;;;;;;4.40;99.90;;;;;;7335662;19;108876;-70
2023/04/03 00:06:58;;;;;;;;;;;4.40;99.90;;;;;;7336419;19;108735;-71
2023/04/03 00:09:25;;;;;;;;;;;4.40;99.90;;;;;;7332599;19;108912;-68
2023/04/03 00:11:52;;;;;;;;;;;4.50;99.90;;;;;;7337197;19;109056;-69
2023/04/03 00:14:19;;;;;;;;;;;4.50;99.90;;;;;;7333487;19;110616;-69
2023/04/03 00:16:46;;;;;;;;;;;4.40;99.90;;;;;;7333612;19;108365;-69
2023/04/03 00:19:14;;;;;;;;;;;4.40;99.90;;;;;;7334543;19;110374;-69
2023/04/03 00:21:41;;;;;;;;;;;4.40;99.90;;;;;;7335021;19;109668;-69
2023/04/03 00:24:08;;;;;;;;;;;4.30;99.90;;;;;;7332114;19;111817;-68
2023/04/03 00:26:35;;;;;;;;;;;4.30;99.90;;;;;;7337561;19;108895;-67
2023/04/03 00:29:02;;;;;;;;;;;4.20;99.90;;;;;;7342682;19;109623;-68
2023/04/03 00:31:29;;;;;;;;;;;4.20;99.90;;;;;;7335236;19;111772;-70
2023/04/03 00:33:58;;;;;;;;;;;4.30;99.90;;;;;;7329884;19;110204;-75
2023/04/03 00:36:25;;;;;;;;;;;4.30;99.90;;;;;;7332298;19;108669;-77
2023/04/03 00:38:52;;;;;;;;;;;4.30;99.90;;;;;;7336702;19;109030;-74
2023/04/03 00:41:19;;;;;;;;;;;4.30;99.90;;;;;;7329729;19;111980;-79
2023/04/03 00:43:46;;;;;;;;;;;4.10;99.90;;;;;;7331078;19;108861;-70
2023/04/03 00:46:13;;;;;;;;;;;4.00;99.90;;;;;;7331325;19;110481;-69
2023/04/03 00:51:30;;;;;;;;;;;4.00;99.90;;;;;;7332295;19;109799;-69
2023/04/03 00:54:02;;;;;;;;;;;4.00;99.90;;;;;;7333092;19;108929;-69
2023/04/03 00:56:30;;;;;;;;;;;4.00;99.90;;;;;;7332077;19;112566;-68
2023/04/03 00:59:14;;;;;;;;;;;4.10;99.90;;;;;;7332235;19;109307;-68
2023/04/03 01:01:41;;;;;;;;;;;4.20;99.90;;;;;;7332074;19;109915;-68
2023/04/03 01:04:27;;;;;;;;;;;4.10;99.90;;;;;;7332406;19;108554;-68
2023/04/03 01:06:56;;;;;;;;;;;4.10;99.90;;;;;;7329603;19;108460;-68
2023/04/03 01:09:23;;;;;;;;;;;4.00;99.90;;;;;;7339249;19;110130;-68
2023/04/03 01:11:50;;;;;;;;;;;4.00;99.90;;;;;;7335521;19;109075;-68
2023/04/03 01:14:17;;;;;;;;;;;4.00;99.90;;;;;;7340659;19;110125;-68
2023/04/03 01:16:52;;;;;;;;;;;4.00;99.90;;;;;;7340461;19;108696;-68
2023/04/03 01:19:21;;;;;;;;;;;4.00;99.90;;;;;;7337763;19;112733;-70
2023/04/03 01:22:00;;;;;;;;;;;4.00;99.90;;;;;;7337763;19;109806;-68
2023/04/03 01:24:32;;;;;;;;;;;3.90;99.90;;;;;;7334849;19;109643;-68
2023/04/03 01:27:00;;;;;;;;;;;3.90;99.90;;;;;;7343066;19;109423;-68
2023/04/03 01:29:27;;;;;;;;;;;3.90;99.90;;;;;;7338083;19;109461;-68
2023/04/03 01:31:57;;;;;;;;;;;4.00;99.90;;;;;;7340177;19;109391;-68
2023/04/03 01:34:25;;;;;;;;;;;4.00;99.90;;;;;;7343726;19;109568;-69
2023/04/03 01:36:52;;;;;;;;;;;4.00;99.90;;;;;;7339670;19;108795;-68
2023/04/03 01:39:20;;;;;;;;;;;3.90;99.90;;;;;;7339797;19;108996;-69
2023/04/03 01:41:48;;;;;;;;;;;3.80;99.90;;;;;;7340146;19;110173;-69
2023/04/03 01:44:16;;;;;;;;;;;3.80;99.90;;;;;;7340860;19;108724;-68
2023/04/03 01:46:43;;;;;;;;;;;3.80;99.90;;;;;;7338210;19;109179;-68
2023/04/03 01:49:10;;;;;;;;;;;3.80;99.90;;;;;;7337995;19;110567;-68
2023/04/03 01:51:37;;;;;;;;;;;3.70;99.90;;;;;;7338238;19;108653;-68
2023/04/03 01:54:04;;;;;;;;;;;3.80;99.90;;;;;;7340282;19;108733;-68
2023/04/03 01:56:32;;;;;;;;;;;3.80;99.90;;;;;;7343826;19;112828;-69
2023/04/03 01:58:59;;;;;;;;;;;3.80;99.90;;;;;;7337581;19;109243;-68
2023/04/03 02:01:26;;;;;;;;;;;3.80;99.90;;;;;;7339690;19;109216;-69
2023/04/03 02:03:54;;;;;;;;;;;3.80;99.90;;;;;;7339494;19;108802;-68
2023/04/03 02:06:21;;;;;;;;;;;3.80;99.90;;;;;;7338182;19;109720;-68
2023/04/03 02:08:48;;;;;;;;;;;3.80;99.90;;;;;;7338791;19;109122;-68
2023/04/03 02:11:15;;;;;;;;;;;3.90;99.90;;;;;;7336765;19;109727;-68
2023/04/03 02:13:42;;;;;;;;;;;3.90;99.90;;;;;;7336597;19;111513;-68
2023/04/03 02:16:10;;;;;;;;;;;3.80;99.90;;;;;;7336757;19;109182;-69
2023/04/03 02:18:38;;;;;;;;;;;3.80;99.90;;;;;;7340594;19;108488;-68
2023/04/03 02:21:08;;;;;;;;;;;3.80;99.90;;;;;;7334340;19;109684;-68
2023/04/03 02:23:36;;;;;;;;;;;3.80;99.90;;;;;;7337351;19;108789;-71
2023/04/03 02:26:09;;;;;;;;;;;3.70;99.90;;;;;;7338665;19;109218;-68
2023/04/03 02:28:36;;;;;;;;;;;3.70;99.90;;;;;;7333636;19;109176;-68
2023/04/03 02:31:04;;;;;;;;;;;3.70;99.90;;;;;;7338063;19;108532;-68
2023/04/03 02:33:31;;;;;;;;;;;3.70;99.90;;;;;;7337118;19;109117;-68
2023/04/03 02:35:58;;;;;;;;;;;3.70;99.90;;;;;;7334723;19;109423;-68
2023/04/03 02:38:26;;;;;;;;;;;3.60;99.90;;;;;;7338582;19;108590;-69
2023/04/03 02:40:53;;;;;;;;;;;3.60;99.90;;;;;;7345314;19;109458;-68
2023/04/03 02:43:20;;;;;;;;;;;3.40;99.90;;;;;;7335415;19;108445;-68
2023/04/03 02:45:47;;;;;;;;;;;3.30;99.90;;;;;;7341037;19;110225;-68
2023/04/03 02:48:14;;;;;;;;;;;3.30;99.90;;;;;;7337332;19;110498;-68
2023/04/03 02:50:42;;;;;;;;;;;3.20;99.90;;;;;;7338593;19;109747;-68
2023/04/03 02:53:09;;;;;;;;;;;3.30;99.90;;;;;;7338740;19;112208;-68
2023/04/03 02:55:36;;;;;;;;;;;3.40;99.90;;;;;;7332651;19;110760;-69
2023/04/03 02:58:03;;;;;;;;;;;3.40;99.90;;;;;;7339406;19;108511;-68
2023/04/03 03:00:30;;;;;;;;;;;3.40;99.90;;;;;;7331490;19;109384;-69
2023/04/03 03:02:57;;;;;;;;;;;3.40;99.90;;;;;;7340205;19;110186;-68
2023/04/03 03:05:25;;;;;;;;;;;3.40;99.90;;;;;;7336422;19;109383;-68
2023/04/03 03:07:52;;;;;;;;;;;3.30;99.90;;;;;;7335823;19;110693;-68
2023/04/03 03:10:19;;;;;;;;;;;3.30;99.90;;;;;;7333808;19;109795;-68
2023/04/03 03:12:46;;;;;;;;;;;3.20;99.90;;;;;;7336380;19;109500;-69
2023/04/03 03:15:13;;;;;;;;;;;3.20;99.90;;;;;;7334745;19;109355;-68
2023/04/03 03:17:40;;;;;;;;;;;3.20;99.90;;;;;;7338250;19;108653;-68
2023/04/03 03:20:07;;;;;;;;;;;3.10;99.90;;;;;;7333887;19;108816;-69
2023/04/03 03:22:35;;;;;;;;;;;3.10;99.90;;;;;;7332530;19;112174;-69
2023/04/03 03:25:02;;;;;;;;;;;3.10;99.90;;;;;;7342447;19;109221;-68
2023/04/03 03:27:29;;;;;;;;;;;3.10;99.90;;;;;;7333640;19;109132;-70
2023/04/03 03:29:57;;;;;;;;;;;3.10;99.90;;;;;;7338728;19;109019;-69
2023/04/03 03:32:24;;;;;;;;;;;3.20;99.90;;;;;;7332837;19;109318;-69
2023/04/03 03:34:51;;;;;;;;;;;3.20;99.90;;;;;;7335643;19;109080;-69
2023/04/03 03:37:18;;;;;;;;;;;3.20;99.90;;;;;;7334245;19;109822;-69
2023/04/03 03:39:45;;;;;;;;;;;3.20;99.90;;;;;;7333493;19;110988;-72
2023/04/03 03:42:12;;;;;;;;;;;3.20;99.90;;;;;;7335686;19;109651;-69
2023/04/03 03:44:39;;;;;;;;;;;3.20;99.90;;;;;;7340642;19;109025;-69
2023/04/03 03:47:06;;;;;;;;;;;3.20;99.90;;;;;;7334990;19;109966;-68
2023/04/03 03:49:33;;;;;;;;;;;3.10;99.90;;;;;;7333740;19;109121;-68
2023/04/03 03:52:01;;;;;;;;;;;3.10;99.90;;;;;;7334413;19;109746;-69
2023/04/03 03:54:28;;;;;;;;;;;3.20;99.90;;;;;;7332683;19;111461;-69
2023/04/03 03:56:55;;;;;;;;;;;3.20;99.90;;;;;;7333913;19;108712;-69
2023/04/03 03:59:22;;;;;;;;;;;3.20;99.90;;;;;;7330906;19;108730;-70
2023/04/03 04:01:50;;;;;;;;;;;3.20;99.90;;;;;;7336157;19;113555;-69
2023/04/03 04:04:17;;;;;;;;;;;3.10;99.90;;;;;;7332809;19;110301;-77
2023/04/03 04:06:44;;;;;;;;;;;3.10;99.90;;;;;;7341243;19;108318;-76
2023/04/03 04:09:11;;;;;;;;;;;3.00;99.90;;;;;;7334032;19;108824;-79
2023/04/03 04:11:40;;;;;;;;;;;3.00;99.90;;;;;;7335121;19;109105;-74
2023/04/03 04:14:10;;;;;;;;;;;3.00;99.90;;;;;;7333848;19;109201;-70
2023/04/03 04:16:37;;;;;;;;;;;3.00;99.90;;;;;;7332372;19;109025;-69
2023/04/03 04:19:05;;;;;;;;;;;3.00;99.90;;;;;;7333503;19;111042;-70
2023/04/03 04:21:35;;;;;;;;;;;3.00;99.90;;;;;;7333248;19;111943;-69
2023/04/03 04:24:02;;;;;;;;;;;3.00;99.90;;;;;;7335099;19;110022;-69
2023/04/03 04:26:32;;;;;;;;;;;2.90;99.90;;;;;;7335097;19;108928;-68
2023/04/03 04:29:00;;;;;;;;;;;2.90;99.90;;;;;;7339489;19;111119;-69
2023/04/03 04:31:27;;;;;;;;;;;2.90;99.90;;;;;;7333959;19;108781;-69
2023/04/03 04:33:54;;;;;;;;;;;2.90;99.90;;;;;;7333879;19;112186;-71
2023/04/03 04:36:21;;;;;;;;;;;2.80;99.90;;;;;;7334240;19;109774;-69
2023/04/03 04:38:52;;;;;;;;;;;2.90;99.90;;;;;;7336438;19;110412;-69
2023/04/03 04:41:22;;;;;;;;;;;2.80;99.90;;;;;;7333572;19;112987;-69
2023/04/03 04:43:50;;;;;;;;;;;2.90;99.90;;;;;;7340285;19;108799;-69
2023/04/03 04:46:17;;;;;;;;;;;2.90;99.90;;;;;;7338603;19;108301;-69
2023/04/03 04:48:44;;;;;;;;;;;2.90;99.90;;;;;;7343242;19;111943;-69
2023/04/03 04:51:11;;;;;;;;;;;2.90;99.90;;;;;;7344225;19;108830;-69
2023/04/03 04:53:39;;;;;;;;;;;2.90;99.90;;;;;;7338669;19;109266;-69
2023/04/03 04:56:06;;;;;;;;;;;2.90;99.90;;;;;;7340710;19;108729;-69
2023/04/03 04:58:33;;;;;;;;;;;2.80;99.90;;;;;;7339019;19;109481;-69
2023/04/03 05:01:05;;;;;;;;;;;2.80;99.90;;;;;;7340305;19;109108;-69
2023/04/03 05:03:32;;;;;;;;;;;2.80;99.90;;;;;;7337781;19;108993;-69
2023/04/03 05:05:59;;;;;;;;;;;2.80;99.90;;;;;;7342518;19;113335;-69
2023/04/03 05:08:26;;;;;;;;;;;2.80;99.90;;;;;;7340486;19;109139;-69
2023/04/03 05:10:53;;;;;;;;;;;2.70;99.90;;;;;;7343427;19;108717;-69
2023/04/03 05:13:22;;;;;;;;;;;2.70;99.90;;;;;;7342135;19;110189;-69
2023/04/03 05:15:49;;;;;;;;;;;2.80;99.90;;;;;;7341486;19;108809;-69
2023/04/03 05:18:16;;;;;;;;;;;2.70;99.90;;;;;;7341147;19;108439;-69
2023/04/03 05:20:43;;;;;;;;;;;2.80;99.90;;;;;;7338899;19;109968;-69
2023/04/03 05:23:11;;;;;;;;;;;2.70;99.90;;;;;;7343162;19;108851;-69
2023/04/03 05:25:38;;;;;;;;;;;2.80;99.90;;;;;;7337399;19;109819;-69
2023/04/03 05:28:06;;;;;;;;;;;3.00;99.90;;;;;;7338442;19;109066;-69
2023/04/03 05:30:32;;;;;;;;;;;3.50;99.90;;;;;;7337749;19;109094;-69
2023/04/03 05:33:00;;;;;;;;;;;3.70;99.90;;;;;;7342772;19;108778;-69
2023/04/03 05:35:27;;;;;;;;;;;3.60;99.90;;;;;;7345675;19;109798;-69
2023/04/03 05:37:54;;;;;;;;;;;3.40;99.90;;;;;;7340013;19;111652;-69
2023/04/03 05:40:21;;;;;;;;;;;3.20;99.90;;;;;;7336948;19;109526;-69
2023/04/03 05:42:48;;;;;;;;;;;3.10;99.90;;;;;;7340622;19;108813;-68
2023/04/03 05:45:16;;;;;;;;;;;3.00;99.90;;;;;;7338046;19;111237;-68
2023/04/03 05:47:43;;;;;;;;;;;2.90;99.90;;;;;;7341071;19;109175;-68
2023/04/03 05:50:10;;;;;;;;;;;2.90;99.90;;;;;;7339545;19;110120;-69
2023/04/03 05:52:38;;;;;;;;;;;2.90;99.90;;;;;;7340707;19;109143;-69
2023/04/03 05:55:06;;;;;;;;;;;2.90;99.90;;;;;;7340177;19;109247;-70
2023/04/03 05:57:33;;;;;;;;;;;2.90;99.90;;;;;;7336450;19;110163;-71
2023/04/03 06:00:00;;;;;;;;;;;3.00;99.90;;;;;;7337140;19;109148;-67
2023/04/03 06:02:27;;;;;;;;;;;3.00;99.90;;;;;;7336282;19;109061;-68
2023/04/03 06:04:54;;;;;;;;;;;3.10;99.90;;;;;;7339372;19;108612;-67
2023/04/03 06:07:22;;;;;;;;;;;3.20;99.90;;;;;;7340319;19;109324;-68
2023/04/03 06:09:51;;;;;;;;;;;3.20;99.90;;;;;;7340705;19;109950;-68
2023/04/03 06:12:18;;;;;;;;;;;3.30;99.90;;;;;;7339719;19;108109;-67
2023/04/03 06:14:45;;;;;;;;;;;3.30;99.90;;;;;;7338516;19;109148;-68
2023/04/03 06:17:13;;;;;;;;;;;3.40;99.90;;;;;;7345221;19;108655;-68
2023/04/03 06:19:40;;;;;;;;;;;3.40;99.90;;;;;;7339282;19;110077;-68
2023/04/03 06:22:07;;;;;;;;;;;3.50;99.90;;;;;;7339008;19;109162;-68
2023/04/03 06:24:35;;;;;;;;;;;3.60;99.90;;;;;;7338680;19;109736;-68
2023/04/03 06:27:02;;;;;;;;;;;3.50;99.90;;;;;;7335842;19;109938;-68
2023/04/03 06:29:29;;;;;;;;;;;3.60;99.90;;;;;;7337898;19;108458;-68
2023/04/03 06:31:56;;;;;;;;;;;3.70;99.90;;;;;;7337361;19;108537;-68
2023/04/03 06:34:24;;;;;;;;;;;3.70;99.90;;;;;;7339058;19;109160;-68
2023/04/03 06:36:52;;;;;;;;;;;3.80;99.90;;;;;;7338061;19;108903;-68
2023/04/03 06:39:21;;;;;;;;;;;3.80;99.90;;;;;;7341191;19;108759;-69
2023/04/03 06:41:49;;;;;;;;;;;3.80;99.90;;;;;;7338343;19;108733;-68
2023/04/03 06:44:16;;;;;;;;;;;3.90;99.90;;;;;;7339356;19;109589;-69
2023/04/03 06:46:43;;;;;;;;;;;4.00;99.90;;;;;;7336516;19;109180;-71
2023/04/03 06:49:11;;;;;;;;;;;4.10;99.90;;;;;;7337209;19;109169;-68
2023/04/03 06:51:38;;;;;;;;;;;4.10;99.90;;;;;;7335020;19;108713;-68
2023/04/03 06:54:05;;;;;;;;;;;4.20;99.90;;;;;;7337215;19;109215;-68
2023/04/03 06:56:33;;;;;;;;;;;4.20;99.90;;;;;;7336348;19;108871;-68
2023/04/03 06:59:00;;;;;;;;;;;4.20;99.90;;;;;;7337046;19;108957;-68
2023/04/03 07:01:28;;;;;;;;;;;4.30;99.90;;;;;;7343156;19;109323;-68
2023/04/03 07:03:55;;;;;;;;;;;4.40;99.90;;;;;;7337467;19;108980;-68
2023/04/03 07:06:23;;;;;;;;;;;4.50;99.90;;;;;;7334699;19;109576;-68
2023/04/03 07:08:50;;;;;;;;;;;4.60;99.90;;;;;;7336217;19;108797;-68
2023/04/03 07:11:17;;;;;;;;;;;4.80;99.90;;;;;;7333844;19;109353;-68
2023/04/03 07:13:44;;;;;;;;;;;4.80;99.90;;;;;;7335630;19;109050;-69
2023/04/03 07:16:12;;;;;;;;;;;4.90;99.90;;;;;;7335211;19;108171;-68
2023/04/03 07:18:39;;;;;;;;;;;4.90;99.90;;;;;;7337046;19;108550;-68
2023/04/03 07:21:07;;;;;;;;;;;5.00;99.90;;;;;;7330637;19;109206;-69
2023/04/03 07:23:34;;;;;;;;;;;5.00;99.90;;;;;;7341858;19;108911;-67
2023/04/03 07:26:01;;;;;;;;;;;5.10;99.90;;;;;;7335548;19;109788;-68
2023/04/03 07:28:28;;;;;;;;;;;5.20;99.90;;;;;;7336961;19;108375;-69
2023/04/03 07:31:02;;;;;;;;;;;5.40;99.90;;;;;;7335314;19;109419;-68
2023/04/03 07:33:29;;;;;;;;;;;5.50;99.90;;;;;;7336182;19;109217;-68
2023/04/03 07:35:56;;;;;;;;;;;5.60;99.90;;;;;;7337527;19;108897;-68
2023/04/03 07:38:23;;;;;;;;;;;5.60;99.90;;;;;;7334567;19;110909;-68
2023/04/03 07:40:52;;;;;;;;;;;5.70;99.90;;;;;;7337934;19;109489;-68
2023/04/03 07:43:20;;;;;;;;;;;5.80;99.90;;;;;;7333025;19;108879;-68
2023/04/03 07:45:49;;;;;;;;;;;5.90;99.90;;;;;;7342744;19;109884;-67
2023/04/03 07:48:20;;;;;;;;;;;6.00;99.90;;;;;;7336118;19;108697;-68
2023/04/03 07:50:47;;;;;;;;;;;6.20;99.90;;;;;;7335211;19;111439;-68
2023/04/03 07:53:14;;;;;;;;;;;6.20;99.90;;;;;;7335874;19;110318;-67
2023/04/03 07:55:44;;;;;;;;;;;6.30;99.90;;;;;;7335748;19;108733;-68
2023/04/03 07:58:12;;;;;;;;;;;6.30;99.90;;;;;;7334600;19;108778;-68
2023/04/03 08:00:40;;;;;;;;;;;6.40;99.90;;;;;;7335705;19;110328;-68
2023/04/03 08:03:09;;;;;;;;;;;6.50;99.90;;;;;;7332268;19;109046;-68
2023/04/03 08:05:42;;;;;;;;;;;6.60;99.90;;;;;;7340862;19;108925;-68
2023/04/03 08:08:10;;;;;;;;;;;6.60;99.90;;;;;;7332864;19;108787;-68
2023/04/03 08:10:38;;;;;;;;;;;6.70;99.90;;;;;;7334729;19;108751;-68
2023/04/03 08:13:05;;;;;;;;;;;6.80;99.90;;;;;;7332722;19;110169;-68
2023/04/03 08:15:32;;;;;;;;;;;6.90;99.90;;;;;;7335849;19;109367;-67
2023/04/03 08:18:00;;;;;;;;;;;7.00;99.90;;;;;;7330196;19;111730;-68
2023/04/03 08:20:30;;;;;;;;;;;6.90;99.90;;;;;;7335488;19;111926;-68
2023/04/03 08:22:57;;;;;;;;;;;6.90;99.90;;;;;;7335501;19;108407;-68
2023/04/03 08:25:24;;;;;;;;;;;7.10;99.90;;;;;;7335422;19;109919;-68
2023/04/03 08:27:52;;;;;;;;;;;7.20;99.90;;;;;;7341051;19;111990;-68
2023/04/03 08:30:20;;;;;;;;;;;7.30;99.90;;;;;;7334106;19;109279;-68
2023/04/03 08:32:47;;;;;;;;;;;7.40;99.90;;;;;;7334908;19;110105;-68
2023/04/03 08:35:14;;;;;;;;;;;7.60;99.90;;;;;;7334449;19;108406;-68
2023/04/03 08:37:41;;;;;;;;;;;7.60;99.90;;;;;;7334132;19;109106;-68
2023/04/03 08:40:13;;;;;;;;;;;7.60;99.90;;;;;;7331568;19;109168;-69
2023/04/03 08:42:47;;;;;;;;;;;7.60;99.90;;;;;;7335761;19;109127;-68
2023/04/03 08:45:17;;;;;;;;;;;7.70;99.90;;;;;;7335075;19;109195;-67
2023/04/03 08:47:50;;;;;;;;;;;7.70;99.90;;;;;;7333361;19;109638;-68
2023/04/03 08:50:23;;;;;;;;;;;7.70;99.90;;;;;;7336291;19;108967;-68
2023/04/03 08:53:00;;;;;;;;;;;7.90;99.90;;;;;;7334936;19;109216;-68
2023/04/03 08:55:42;;;;;;;;;;;7.90;99.90;;;;;;7336823;19;108850;-68
2023/04/03 08:58:12;;;;;;;;;;;8.00;99.90;;;;;;7333867;19;110453;-68
2023/04/03 09:00:45;;;;;;;;;;;7.90;99.90;;;;;;7333848;19;110971;-68
2023/04/03 09:03:17;;;;;;;;;;;8.00;99.90;;;;;;7335006;19;109008;-68
2023/04/03 09:05:53;;;;;;;;;;;8.10;99.90;;;;;;7336859;19;109351;-68
2023/04/03 09:08:22;;;;;;;;;;;8.20;99.90;;;;;;7330627;19;110573;-68
2023/04/03 09:10:52;;;;;;;;;;;8.30;99.90;;;;;;7334413;19;111298;-68
2023/04/03 09:13:22;;;;;;;;;;;8.30;99.90;;;;;;7338546;19;110018;-67
2023/04/03 09:15:49;;;;;;;;;;;8.40;99.90;;;;;;7332903;19;108968;-68
2023/04/03 09:18:20;;;;;;;;;;;8.40;99.90;;;;;;7333222;19;109336;-68
2023/04/03 09:21:02;;;;;;;;;;;8.50;99.90;;;;;;7333157;19;109552;-67
2023/04/03 09:23:42;;;;;;;;;;;8.50;99.90;;;;;;7332934;19;109613;-67
2023/04/03 09:26:29;;;;;;;;;;;8.60;99.90;;;;;;7332545;19;109276;-68
2023/04/03 09:28:59;;;;;;;;;;;8.50;99.90;;;;;;7335229;19;109248;-68
2023/04/03 09:31:28;;;;;;;;;;;8.60;99.90;;;;;;7340929;19;110220;-68
2023/04/03 09:33:59;;;;;;;;;;;8.70;99.90;;;;;;7340537;19;110017;-67
2023/04/03 09:36:46;;;;;;;;;;;8.70;99.90;;;;;;7346920;19;110634;-67
2023/04/03 09:39:16;;;;;;;;;;;8.80;99.90;;;;;;7340217;19;108736;-67
2023/04/03 09:42:03;;;;;;;;;;;8.80;99.90;;;;;;7340265;19;109877;-67
2023/04/03 09:44:37;;;;;;;;;;;8.80;99.90;;;;;;7340282;19;111818;-69
2023/04/03 09:47:23;;;;;;;;;;;8.90;99.90;;;;;;7339864;19;109112;-70
2023/04/03 09:49:51;;;;;;;;;;;9.00;99.90;;;;;;7339898;19;110103;-67
2023/04/03 09:52:19;;;;;;;;;;;9.00;99.90;;;;;;7337617;19;108597;-68
2023/04/03 09:54:46;;;;;;;;;;;8.80;99.90;;;;;;7341957;19;108582;-67
2023/04/03 09:57:13;;;;;;;;;;;8.80;99.90;;;;;;7339303;19;110203;-68
2023/04/03 09:59:43;;;;;;;;;;;9.00;99.90;;;;;;7344972;19;110520;-71
2023/04/03 10:02:10;;;;;;;;;;;8.90;99.90;;;;;;7335660;19;109604;-70
2023/04/03 10:04:40;;;;;;;;;;;8.90;99.90;;;;;;7337542;19;108895;-74
2023/04/03 10:07:26;;;;;;;;;;;9.00;99.90;;;;;;7338822;19;113013;-68
2023/04/03 10:09:57;;;;;;;;;;;8.90;99.90;;;;;;7337625;19;110510;-68
2023/04/03 10:12:24;;;;;;;;;;;8.90;99.90;;;;;;7340880;19;109368;-69
2023/04/03 10:14:56;;;;;;;;;;;9.10;99.90;;;;;;7336538;19;110156;-68
2023/04/03 10:17:41;;;;;;;;;;;9.30;99.90;;;;;;7338231;19;109232;-68
2023/04/03 10:20:17;;;;;;;;;;;9.30;99.90;;;;;;7344923;19;109067;-78
2023/04/03 10:22:51;;;;;;;;;;;9.20;99.90;;;;;;7335760;19;110213;-75
2023/04/03 10:25:25;;;;;;;;;;;9.20;99.90;;;;;;7339042;19;108576;-78
2023/04/03 10:28:09;;;;;;;;;;;9.40;99.90;;;;;;7337960;19;108829;-68
2023/04/03 10:34:10;;;;;;;;;;;9.70;99.90;;;;;;7339685;19;109880;-68
2023/04/03 10:36:38;;;;;;;;;;;9.80;99.90;;;;;;7340980;19;109299;-67
2023/04/03 10:39:05;;;;;;;;;;;9.90;99.90;;;;;;7338063;19;110111;-66
2023/04/03 10:41:32;;;;;;;;;;;9.80;99.90;;;;;;7338216;19;108655;-67
2023/04/03 10:44:02;;;;;;;;;;;9.80;99.90;;;;;;7344982;19;109521;-66
2023/04/03 10:46:41;;;;;;;;;;;10.00;99.90;;;;;;7336640;19;108932;-67
2023/04/03 10:49:11;;;;;;;;;;;10.10;99.90;;;;;;7339283;19;109265;-67
2023/04/03 10:51:46;;;;;;;;;;;10.10;99.90;;;;;;7336430;19;109117;-67
2023/04/03 10:54:22;;;;;;;;;;;10.20;99.90;;;;;;7342093;19;108604;-66
2023/04/03 10:56:54;;;;;;;;;;;10.30;99.90;;;;;;7339357;19;108421;-67
2023/04/03 11:00:01;;;;;;;;;;;10.40;99.60;;;;;;7337866;19;109385;-67
2023/04/03 11:02:31;;;;;;;;;;;10.20;98.80;;;;;;7338338;19;108948;-67
2023/04/03 11:05:04;;;;;;;;;;;10.10;97.80;;;;;;7338570;19;109322;-66
2023/04/03 11:07:37;;;;;;;;;;;10.10;99.30;;;;;;7343687;19;110212;-66
2023/04/03 11:10:12;;;;;;;;;;;10.10;98.20;;;;;;7337040;19;109144;-67
2023/04/03 11:12:49;;;;;;;;;;;10.20;98.10;;;;;;7339547;19;110542;-67
2023/04/03 11:15:17;;;;;;;;;;;10.20;94.80;;;;;;7336947;19;108622;-67
2023/04/03 11:17:50;;;;;;;;;;;10.20;97.20;;;;;;7337288;19;112907;-67
2023/04/03 11:20:17;;;;;;;;;;;10.20;96.30;;;;;;7336332;19;110501;-67
2023/04/03 11:22:50;;;;;;;;;;;10.20;93.20;;;;;;7336753;19;108695;-67
2023/04/03 11:25:23;;;;;;;;;;;10.10;95.60;;;;;;7335634;19;110670;-67
2023/04/03 11:28:19;;;;;;;;;;;10.20;95.50;;;;;;7334365;19;109764;-66
2023/04/03 11:30:47;;;;;;;;;;;10.30;97.20;;;;;;7341450;19;109762;-67
2023/04/03 11:33:21;;;;;;;;;;;10.40;95.70;;;;;;7333769;19;110044;-67
2023/04/03 11:35:51;;;;;;;;;;;10.50;97.10;;;;;;7335078;19;108433;-67
2023/04/03 11:38:36;;;;;;;;;;;10.60;96.40;;;;;;7334090;19;109357;-67
2023/04/03 11:41:04;;;;;;;;;;;10.70;96.10;;;;;;7335548;19;109120;-67
2023/04/03 11:43:32;;;;;;;;;;;10.70;95.30;;;;;;7335857;19;109231;-67
2023/04/03 11:46:02;;;;;;;;;;;10.60;94.70;;;;;;7335966;19;113340;-67
2023/04/03 11:48:31;;;;;;;;;;;10.60;93.90;;;;;;7329159;19;109092;-67
2023/04/03 11:50:59;;;;;;;;;;;10.60;93.50;;;;;;7335726;19;108887;-67
2023/04/03 11:53:36;;;;;;;;;;;10.60;94.30;;;;;;7342621;19;108864;-67
2023/04/03 11:56:23;;;;;;;;;;;10.70;95.10;;;;;;7333922;19;109260;-67
2023/04/03 11:59:05;;;;;;;;;;;10.80;95.90;;;;;;7335773;19;109067;-67
2023/04/03 12:01:43;;;;;;;;;;;10.90;93.70;;;;;;7335217;19;110167;-67
2023/04/03 12:04:14;;;;;;;;;;;10.90;93.40;;;;;;7335928;19;108478;-67
2023/04/03 12:06:48;;;;;;;;;;;11.00;94.10;;;;;;7335692;19;108703;-67
2023/04/03 12:09:33;;;;;;;;;;;11.00;94.40;;;;;;7335422;19;110525;-67
2023/04/03 12:12:20;;;;;;;;;;;11.10;95.10;;;;;;7336602;19;108670;-66
2023/04/03 12:14:47;;;;;;;;;;;11.20;94.60;;;;;;7336423;19;108399;-67
2023/04/03 12:17:22;;;;;;;;;;;11.40;94.30;;;;;;7334403;19;109173;-67
2023/04/03 12:19:49;;;;;;;;;;;11.50;91.90;;;;;;7335978;19;108333;-70
2023/04/03 12:22:20;;;;;;;;;;;11.60;93.60;;;;;;7333958;19;109390;-67
2023/04/03 12:24:51;;;;;;;;;;;11.70;93.60;;;;;;7338658;19;110988;-67
2023/04/03 12:27:21;;;;;;;;;;;11.90;93.70;;;;;;7335608;19;108753;-68
2023/04/03 12:30:01;;;;;;;;;;;11.90;92.40;;;;;;7335815;19;110291;-67
2023/04/03 12:32:43;;;;;;;;;;;12.00;93.40;;;;;;7331789;19;108577;-68
2023/04/03 12:35:15;;;;;;;;;;;12.20;93.30;;;;;;7333360;19;109743;-68
2023/04/03 12:37:55;;;;;;;;;;;11.90;91.30;;;;;;7341592;19;109979;-67
2023/04/03 12:40:27;;;;;;;;;;;11.80;90.70;;;;;;7334868;19;109052;-67
2023/04/03 12:43:05;;;;;;;;;;;11.80;91.80;;;;;;7336005;19;114420;-67
2023/04/03 12:45:48;;;;;;;;;;;11.80;90.40;;;;;;7332638;19;109606;-68
2023/04/03 12:48:22;;;;;;;;;;;11.90;92.90;;;;;;7333764;19;109085;-67
2023/04/03 12:50:52;;;;;;;;;;;12.20;92.00;;;;;;7334085;19;114244;-68
2023/04/03 12:53:23;;;;;;;;;;;12.30;92.50;;;;;;7332035;19;108884;-70
2023/04/03 12:55:57;;;;;;;;;;;12.30;90.50;;;;;;7336137;19;109749;-70
2023/04/03 12:58:26;;;;;;;;;;;12.20;90.30;;;;;;7334456;19;109495;-68
2023/04/03 13:01:01;;;;;;;;;;;12.20;92.30;;;;;;7341613;19;108580;-68
2023/04/03 13:03:28;;;;;;;;;;;12.50;92.70;;;;;;7335900;19;110759;-68
2023/04/03 13:05:58;;;;;;;;;;;12.60;91.90;;;;;;7334312;19;110368;-68
2023/04/03 13:11:02;;;;;;;;;;;12.40;90.30;;;;;;7349491;19;108554;-90
2023/04/03 13:15:59;;;;;;;;;;;12.80;90.40;;;;;;7340170;19;108862;-68
2023/04/03 13:18:28;;;;;;;;;;;12.80;88.60;;;;;;7341220;19;109368;-68
2023/04/03 13:20:58;;;;;;;;;;;12.90;90.90;;;;;;7344664;19;109680;-68
2023/04/03 13:26:04;;;;;;;;;;;13.00;85.50;;;;;;7334316;19;108989;-68
2023/04/03 13:28:34;;;;;;;;;;;13.10;85.40;;;;;;7338407;19;109468;-78
2023/04/03 13:31:10;;;;;;;;;;;13.30;87.50;;;;;;7339100;19;109842;-76
2023/04/03 13:33:38;;;;;;;;;;;13.60;88.00;;;;;;7340118;19;109300;-70
2023/04/03 13:36:07;;;;;;;;;;;13.50;81.90;;;;;;7339622;19;109937;-68
2023/04/03 13:38:36;;;;;;;;;;;13.50;83.40;;;;;;7337631;19;109670;-69
2023/04/03 13:41:06;;;;;;;;;;;13.60;85.80;;;;;;7341645;19;108818;-68
2023/04/03 13:43:34;;;;;;;;;;;13.40;81.20;;;;;;7341653;19;108966;-68
2023/04/03 13:46:04;;;;;;;;;;;13.10;83.70;;;;;;7345706;19;109438;-68
2023/04/03 13:48:39;;;;;;;;;;;13.30;84.20;;;;;;7337570;19;110430;-68
2023/04/03 13:51:18;;;;;;;;;;;13.60;85.60;;;;;;7340689;19;109189;-67
2023/04/03 13:54:05;;;;;;;;;;;14.00;83.50;;;;;;7342576;19;108741;-92
2023/04/03 13:56:37;;;;;;;;;;;14.20;84.60;;;;;;7343103;19;109377;-70
2023/04/03 13:59:13;;;;;;;;;;;14.10;81.80;;;;;;7338648;19;110077;-67
2023/04/03 14:01:42;;;;;;;;;;;14.20;80.30;;;;;;7341398;19;109364;-68
2023/04/03 14:04:12;;;;;;;;;;;14.30;81.30;;;;;;7340315;19;108777;-68
2023/04/03 14:06:40;;;;;;;;;;;14.50;81.80;;;;;;7337264;19;109118;-68
2023/04/03 14:09:07;;;;;;;;;;;14.50;77.90;;;;;;7343775;19;108852;-68
2023/04/03 14:11:35;;;;;;;;;;;14.20;75.30;;;;;;7338391;19;110696;-68
2023/04/03 14:14:05;;;;;;;;;;;14.00;76.30;;;;;;7336150;19;109228;-68
2023/04/03 14:16:37;;;;;;;;;;;13.90;72.50;;;;;;7336624;19;108431;-68
2023/04/03 14:19:04;;;;;;;;;;;13.90;77.10;;;;;;7339816;19;110272;-68
2023/04/03 14:21:32;;;;;;;;;;;14.10;77.40;;;;;;7340106;19;108642;-68
2023/04/03 14:23:59;;;;;;;;;;;14.20;75.30;;;;;;7339394;19;109173;-68
2023/04/03 14:26:30;;;;;;;;;;;14.10;75.20;;;;;;7337630;19;110928;-68
2023/04/03 14:28:57;;;;;;;;;;;14.20;76.00;;;;;;7344747;19;109445;-68
2023/04/03 14:31:24;;;;;;;;;;;14.30;76.10;;;;;;7339262;19;113748;-68
2023/04/03 14:33:51;;;;;;;;;;;14.40;77.00;;;;;;7339290;19;108666;-68
2023/04/03 14:36:23;;;;;;;;;;;14.60;75.30;;;;;;7340770;19;108659;-68
2023/04/03 14:38:51;;;;;;;;;;;14.70;73.20;;;;;;7338374;19;112150;-68
2023/04/03 14:41:20;;;;;;;;;;;14.70;74.40;;;;;;7339292;19;108279;-68
2023/04/03 14:43:48;;;;;;;;;;;14.80;74.80;;;;;;7339423;19;108856;-68